Details From MMMM - GENERAL FRANCISCO J MUJICA INTL
To MMMX - Licenciado Benito Juarez Intl
Flight Number -
Tags decoded
Created
Modified
Stats Distance 113 nm / 210 km
Max Altitude 0 ft / 0 m
Waypoints 2
Social Downloads 0
Likes 0
Share VATSIM

Download

Looking for another format? Having issues loading an existing format? Contact us
Advertisement - Login to hide

Notes

Requested: MMMM MMMX

Route

MMMM MMMX

ID Type Via Altitude Latitude Longitude Leg Dist Tot Dist Heading (true) Name
O MMMM APT - 0 ft / 0 m 19.85049˚ -101.02526˚ - 0 nm - GENERAL FRANCISCO J MUJICA INTL
O MMMX APT - 0 ft / 0 m 19.43631˚ -99.07210˚ 113 nm 113 nm 102° / 103° Licenciado Benito Juarez Intl

Altitude Profile

Advertisement - Login to hide

MMMM

Details ICAO MMMM (MLM)
Name GENERAL FRANCISCO J MUJICA INTL
Region Mexico
Timezone America/Mexico_City (UTC-6.0)
Stats Elevation 6,033 ft / 1,839 m (AMSL)
Location 19.850494° -101.025263°
Runways 1
Magnetic Variation 5.417° E

METAR

MMMM 120547Z 00000KT 7SM SCT250 04/M04 A3033 RMK SLP214 52005 978 8/002

Decode

TAF

TAF MMMM 120506Z 1206/1312 00000KT P6SM BKN250 FM121700 06010KT P6SM BKN250 FM130200 06005KT P6SM BKN250

Decode

Departure Runways

ID Width Length Bearing (true) Bearing (mag) Surface Threshold Offset Overrun Length
05 148 ft / 45 m 11,164 ft / 3,403 m 54.53° 49.11° Asphalt 0 ft / 0 m 190 ft / 58 m
23 148 ft / 45 m 11,164 ft / 3,403 m 234.54° 229.12° Asphalt 0 ft / 0 m 190 ft / 58 m

MMMX

Details ICAO MMMX (MEX)
Name Licenciado Benito Juarez Intl
Region Mexico
Timezone America/Mexico_City (UTC-6.0)
Stats Elevation 7,316 ft / 2,230 m (AMSL)
Location 19.436308° -99.072104°
Runways 2
Magnetic Variation 4.649° E

METAR

MMMX 120630Z 05006KT 7SM SKC 06/M05 A3041 NOSIG RMK HZY CI

Decode

TAF

TAF MMMX 120536Z 1206/1312 23005KT P6SM SCT250 TX20/1221Z TN02/1212Z FM121900 08010KT P6SM SCT250 FM130300 02005KT P6SM SCT250

Decode

Destination Runways

ID Width Length Bearing (true) Bearing (mag) Surface Threshold Offset Overrun Length
05L 148 ft / 45 m 12,951 ft / 3,948 m 59.25° 54.60° Asphalt 1,033 ft / 315 m 0 ft / 0 m
05R 148 ft / 45 m 12,800 ft / 3,902 m 59.26° 54.61° Asphalt 1,493 ft / 455 m 0 ft / 0 m
23L 148 ft / 45 m 12,800 ft / 3,902 m 239.28° 234.63° Asphalt 0 ft / 0 m 200 ft / 61 m
23R 148 ft / 45 m 12,951 ft / 3,948 m 239.27° 234.62° Asphalt 1,640 ft / 500 m 0 ft / 0 m

Approach Navaids

Runway Type Ident Frequency Range Bearing (true) Bearing (mag) Slope Elevation
05R Localiser IMWX 109.10 MHz 18 nm / 33 km 59.26° 54.61° - 7,316 ft / 2,230 m (AMSL)
05R Glidescope IMWX 109.10 MHz 10 nm / 19 km 59.27° 54.62° 3.00° 7,316 ft / 2,230 m (AMSL)
05R DME IMWX 109.10 MHz 18 nm / 33 km - - - 7,316 ft / 2,230 m (AMSL)
23L Localiser IMEX 109.70 MHz 18 nm / 33 km 239.27° 234.62° - 7,316 ft / 2,230 m (AMSL)
23L Glidescope IMEX 109.70 MHz 10 nm / 19 km 239.27° 234.62° 3.00° 7,316 ft / 2,230 m (AMSL)
23L DME IMEX 109.70 MHz 18 nm / 33 km - - - 7,316 ft / 2,230 m (AMSL)

Popular Alternatives